sensor_id;sensor_type;location;lat;lon;timestamp;P1;durP1;ratioP1;P2;durP2;ratioP2
20365;SDS011;10341;49.894;8.822;2022-11-25T00:03:49;10.38;;;4.88;;
20365;SDS011;10341;49.894;8.822;2022-11-25T00:09:10;5.40;;;3.17;;
20365;SDS011;10341;49.894;8.822;2022-11-25T00:14:30;9.30;;;3.53;;
20365;SDS011;10341;49.894;8.822;2022-11-25T00:19:49;10.77;;;4.10;;
20365;SDS011;10341;49.894;8.822;2022-11-25T00:25:09;7.95;;;3.80;;
20365;SDS011;10341;49.894;8.822;2022-11-25T00:30:29;10.05;;;4.20;;
20365;SDS011;10341;49.894;8.822;2022-11-25T00:35:48;11.38;;;4.93;;
20365;SDS011;10341;49.894;8.822;2022-11-25T00:41:07;13.30;;;5.60;;
20365;SDS011;10341;49.894;8.822;2022-11-25T00:46:45;9.63;;;5.15;;
20365;SDS011;10341;49.894;8.822;2022-11-25T00:52:04;16.40;;;5.00;;
20365;SDS011;10341;49.894;8.822;2022-11-25T00:57:25;8.60;;;3.60;;
20365;SDS011;10341;49.894;8.822;2022-11-25T01:02:45;6.95;;;2.97;;
20365;SDS011;10341;49.894;8.822;2022-11-25T01:08:06;10.15;;;3.13;;
20365;SDS011;10341;49.894;8.822;2022-11-25T01:13:25;7.88;;;3.47;;
20365;SDS011;10341;49.894;8.822;2022-11-25T01:18:45;5.88;;;3.00;;
20365;SDS011;10341;49.894;8.822;2022-11-25T01:24:06;7.38;;;2.85;;
20365;SDS011;10341;49.894;8.822;2022-11-25T01:29:26;9.00;;;3.78;;
20365;SDS011;10341;49.894;8.822;2022-11-25T01:34:46;8.52;;;3.20;;
20365;SDS011;10341;49.894;8.822;2022-11-25T01:45:28;11.18;;;4.57;;
20365;SDS011;10341;49.894;8.822;2022-11-25T01:50:51;11.50;;;4.53;;
20365;SDS011;10341;49.894;8.822;2022-11-25T01:56:12;10.98;;;4.20;;
20365;SDS011;10341;49.894;8.822;2022-11-25T02:06:52;6.53;;;3.93;;
20365;SDS011;10341;49.894;8.822;2022-11-25T02:12:16;8.63;;;4.38;;
20365;SDS011;10341;49.894;8.822;2022-11-25T02:17:38;11.38;;;5.00;;
20365;SDS011;10341;49.894;8.822;2022-11-25T02:28:30;12.18;;;5.53;;
20365;SDS011;10341;49.894;8.822;2022-11-25T02:33:50;10.52;;;4.90;;
20365;SDS011;10341;49.894;8.822;2022-11-25T02:39:10;8.65;;;5.13;;
20365;SDS011;10341;49.894;8.822;2022-11-25T02:44:30;7.43;;;4.47;;
20365;SDS011;10341;49.894;8.822;2022-11-25T02:49:49;11.13;;;4.93;;
20365;SDS011;10341;49.894;8.822;2022-11-25T02:55:09;10.27;;;4.57;;
20365;SDS011;10341;49.894;8.822;2022-11-25T03:00:29;5.47;;;3.33;;
20365;SDS011;10341;49.894;8.822;2022-11-25T03:05:48;9.82;;;4.13;;
20365;SDS011;10341;49.894;8.822;2022-11-25T03:11:07;12.75;;;3.90;;
20365;SDS011;10341;49.894;8.822;2022-11-25T03:16:26;9.77;;;3.60;;
20365;SDS011;10341;49.894;8.822;2022-11-25T03:21:46;14.43;;;4.53;;
20365;SDS011;10341;49.894;8.822;2022-11-25T03:27:05;8.57;;;3.75;;
20365;SDS011;10341;49.894;8.822;2022-11-25T03:32:24;10.97;;;4.40;;
20365;SDS011;10341;49.894;8.822;2022-11-25T03:43:03;8.70;;;3.53;;
20365;SDS011;10341;49.894;8.822;2022-11-25T03:48:23;7.72;;;3.38;;
20365;SDS011;10341;49.894;8.822;2022-11-25T03:53:44;12.43;;;5.28;;
20365;SDS011;10341;49.894;8.822;2022-11-25T04:09:45;8.50;;;3.80;;
20365;SDS011;10341;49.894;8.822;2022-11-25T04:15:08;5.72;;;3.50;;
20365;SDS011;10341;49.894;8.822;2022-11-25T04:20:28;9.00;;;3.83;;
20365;SDS011;10341;49.894;8.822;2022-11-25T04:25:54;9.07;;;4.38;;
20365;SDS011;10341;49.894;8.822;2022-11-25T04:31:18;9.35;;;3.47;;
20365;SDS011;10341;49.894;8.822;2022-11-25T04:36:39;9.75;;;3.72;;
20365;SDS011;10341;49.894;8.822;2022-11-25T04:41:58;9.98;;;3.50;;
20365;SDS011;10341;49.894;8.822;2022-11-25T04:47:37;7.93;;;4.25;;
20365;SDS011;10341;49.894;8.822;2022-11-25T04:52:58;12.60;;;5.05;;
20365;SDS011;10341;49.894;8.822;2022-11-25T04:58:17;16.27;;;4.50;;
20365;SDS011;10341;49.894;8.822;2022-11-25T05:09:19;7.22;;;4.13;;
20365;SDS011;10341;49.894;8.822;2022-11-25T05:14:47;7.85;;;4.72;;
20365;SDS011;10341;49.894;8.822;2022-11-25T05:20:08;9.25;;;4.30;;
20365;SDS011;10341;49.894;8.822;2022-11-25T05:25:28;8.20;;;3.92;;
20365;SDS011;10341;49.894;8.822;2022-11-25T05:31:11;6.90;;;4.15;;
20365;SDS011;10341;49.894;8.822;2022-11-25T05:41:50;9.60;;;4.77;;
20365;SDS011;10341;49.894;8.822;2022-11-25T05:47:10;10.18;;;5.18;;
20365;SDS011;10341;49.894;8.822;2022-11-25T05:52:31;9.98;;;4.43;;
20365;SDS011;10341;49.894;8.822;2022-11-25T05:57:53;7.47;;;4.25;;
20365;SDS011;10341;49.894;8.822;2022-11-25T06:03:13;8.25;;;3.92;;
20365;SDS011;10341;49.894;8.822;2022-11-25T06:08:34;10.07;;;4.80;;
20365;SDS011;10341;49.894;8.822;2022-11-25T06:13:55;11.80;;;4.18;;
20365;SDS011;10341;49.894;8.822;2022-11-25T06:19:16;8.00;;;3.53;;
20365;SDS011;10341;49.894;8.822;2022-11-25T06:24:35;9.00;;;3.63;;
20365;SDS011;10341;49.894;8.822;2022-11-25T06:29:58;5.38;;;3.28;;
20365;SDS011;10341;49.894;8.822;2022-11-25T06:40:44;10.00;;;3.95;;
20365;SDS011;10341;49.894;8.822;2022-11-25T06:46:04;6.32;;;3.95;;
20365;SDS011;10341;49.894;8.822;2022-11-25T06:51:24;8.43;;;3.72;;
20365;SDS011;10341;49.894;8.822;2022-11-25T07:02:10;7.25;;;4.47;;
20365;SDS011;10341;49.894;8.822;2022-11-25T07:07:30;8.65;;;4.30;;
20365;SDS011;10341;49.894;8.822;2022-11-25T07:18:09;16.45;;;7.28;;
20365;SDS011;10341;49.894;8.822;2022-11-25T07:23:29;19.88;;;8.60;;
20365;SDS011;10341;49.894;8.822;2022-11-25T07:28:49;17.27;;;8.13;;
20365;SDS011;10341;49.894;8.822;2022-11-25T07:34:11;19.60;;;8.68;;
20365;SDS011;10341;49.894;8.822;2022-11-25T07:39:35;16.65;;;8.93;;
20365;SDS011;10341;49.894;8.822;2022-11-25T07:44:54;11.07;;;6.55;;
20365;SDS011;10341;49.894;8.822;2022-11-25T07:50:31;13.30;;;5.95;;
20365;SDS011;10341;49.894;8.822;2022-11-25T07:55:51;9.27;;;5.18;;
20365;SDS011;10341;49.894;8.822;2022-11-25T08:01:11;9.63;;;5.20;;
20365;SDS011;10341;49.894;8.822;2022-11-25T08:06:31;7.10;;;4.70;;
20365;SDS011;10341;49.894;8.822;2022-11-25T08:11:51;9.75;;;5.45;;
20365;SDS011;10341;49.894;8.822;2022-11-25T08:17:10;14.80;;;5.40;;
20365;SDS011;10341;49.894;8.822;2022-11-25T08:22:30;7.43;;;4.60;;
20365;SDS011;10341;49.894;8.822;2022-11-25T08:27:49;10.90;;;5.40;;
20365;SDS011;10341;49.894;8.822;2022-11-25T08:33:08;9.88;;;5.28;;
20365;SDS011;10341;49.894;8.822;2022-11-25T08:38:28;10.13;;;5.20;;
20365;SDS011;10341;49.894;8.822;2022-11-25T08:43:48;8.52;;;5.20;;
20365;SDS011;10341;49.894;8.822;2022-11-25T08:49:07;9.85;;;5.40;;
20365;SDS011;10341;49.894;8.822;2022-11-25T08:54:28;14.73;;;7.18;;
20365;SDS011;10341;49.894;8.822;2022-11-25T08:59:48;11.15;;;5.88;;
20365;SDS011;10341;49.894;8.822;2022-11-25T09:05:10;9.27;;;5.60;;
20365;SDS011;10341;49.894;8.822;2022-11-25T09:10:30;10.35;;;6.78;;
20365;SDS011;10341;49.894;8.822;2022-11-25T09:15:50;21.70;;;11.35;;
20365;SDS011;10341;49.894;8.822;2022-11-25T09:21:11;14.05;;;7.45;;
20365;SDS011;10341;49.894;8.822;2022-11-25T09:26:32;13.00;;;8.20;;
20365;SDS011;10341;49.894;8.822;2022-11-25T09:31:53;10.80;;;8.93;;
20365;SDS011;10341;49.894;8.822;2022-11-25T09:37:13;10.02;;;6.25;;
20365;SDS011;10341;49.894;8.822;2022-11-25T09:48:25;9.82;;;5.10;;
20365;SDS011;10341;49.894;8.822;2022-11-25T09:53:52;7.82;;;3.22;;
20365;SDS011;10341;49.894;8.822;2022-11-25T09:59:16;12.27;;;2.92;;
20365;SDS011;10341;49.894;8.822;2022-11-25T10:05:07;6.65;;;2.17;;
20365;SDS011;10341;49.894;8.822;2022-11-25T10:10:44;11.90;;;2.80;;
20365;SDS011;10341;49.894;8.822;2022-11-25T10:16:06;7.65;;;2.25;;
20365;SDS011;10341;49.894;8.822;2022-11-25T10:21:39;8.65;;;2.00;;
20365;SDS011;10341;49.894;8.822;2022-11-25T10:27:00;5.70;;;2.15;;
20365;SDS011;10341;49.894;8.822;2022-11-25T10:32:25;7.30;;;2.83;;
20365;SDS011;10341;49.894;8.822;2022-11-25T10:37:49;4.90;;;1.92;;
20365;SDS011;10341;49.894;8.822;2022-11-25T10:43:13;8.88;;;2.60;;
20365;SDS011;10341;49.894;8.822;2022-11-25T10:59:40;7.93;;;2.50;;
20365;SDS011;10341;49.894;8.822;2022-11-25T11:10:25;9.07;;;2.50;;
20365;SDS011;10341;49.894;8.822;2022-11-25T11:15:45;7.50;;;2.90;;
20365;SDS011;10341;49.894;8.822;2022-11-25T11:21:07;4.18;;;2.20;;
20365;SDS011;10341;49.894;8.822;2022-11-25T11:26:39;7.88;;;2.33;;
20365;SDS011;10341;49.894;8.822;2022-11-25T11:31:59;6.22;;;2.15;;
20365;SDS011;10341;49.894;8.822;2022-11-25T11:37:42;6.07;;;2.00;;
20365;SDS011;10341;49.894;8.822;2022-11-25T11:43:23;5.30;;;2.37;;
20365;SDS011;10341;49.894;8.822;2022-11-25T11:49:18;6.80;;;2.17;;
20365;SDS011;10341;49.894;8.822;2022-11-25T12:00:05;5.07;;;2.40;;
20365;SDS011;10341;49.894;8.822;2022-11-25T12:05:34;3.55;;;1.73;;
20365;SDS011;10341;49.894;8.822;2022-11-25T12:16:26;2.70;;;1.77;;
20365;SDS011;10341;49.894;8.822;2022-11-25T12:21:54;5.50;;;2.45;;
20365;SDS011;10341;49.894;8.822;2022-11-25T12:27:32;5.85;;;2.20;;
20365;SDS011;10341;49.894;8.822;2022-11-25T12:33:02;9.10;;;2.65;;
20365;SDS011;10341;49.894;8.822;2022-11-25T12:38:35;7.75;;;3.33;;
20365;SDS011;10341;49.894;8.822;2022-11-25T12:44:08;5.22;;;2.47;;
20365;SDS011;10341;49.894;8.822;2022-11-25T12:49:48;7.32;;;2.38;;
20365;SDS011;10341;49.894;8.822;2022-11-25T13:00:41;5.15;;;2.40;;
20365;SDS011;10341;49.894;8.822;2022-11-25T13:17:41;4.68;;;2.20;;
20365;SDS011;10341;49.894;8.822;2022-11-25T13:23:06;6.82;;;2.40;;
20365;SDS011;10341;49.894;8.822;2022-11-25T13:28:40;5.53;;;2.38;;
20365;SDS011;10341;49.894;8.822;2022-11-25T13:34:07;6.75;;;2.85;;
20365;SDS011;10341;49.894;8.822;2022-11-25T13:39:36;5.88;;;2.60;;
20365;SDS011;10341;49.894;8.822;2022-11-25T13:44:57;4.75;;;2.22;;
20365;SDS011;10341;49.894;8.822;2022-11-25T13:50:19;7.72;;;2.60;;
20365;SDS011;10341;49.894;8.822;2022-11-25T13:55:41;6.32;;;2.30;;
20365;SDS011;10341;49.894;8.822;2022-11-25T14:01:02;5.70;;;2.53;;
20365;SDS011;10341;49.894;8.822;2022-11-25T14:24:17;5.85;;;2.95;;
20365;SDS011;10341;49.894;8.822;2022-11-25T14:41:10;3.53;;;2.20;;
20365;SDS011;10341;49.894;8.822;2022-11-25T14:46:50;8.00;;;3.00;;
20365;SDS011;10341;49.894;8.822;2022-11-25T14:52:21;6.40;;;2.33;;
20365;SDS011;10341;49.894;8.822;2022-11-25T14:57:42;10.57;;;2.30;;
20365;SDS011;10341;49.894;8.822;2022-11-25T15:03:03;7.65;;;2.42;;
20365;SDS011;10341;49.894;8.822;2022-11-25T15:08:25;7.60;;;2.83;;
20365;SDS011;10341;49.894;8.822;2022-11-25T15:13:45;7.03;;;2.55;;
20365;SDS011;10341;49.894;8.822;2022-11-25T15:19:15;8.20;;;3.45;;
20365;SDS011;10341;49.894;8.822;2022-11-25T15:24:41;7.68;;;3.00;;
20365;SDS011;10341;49.894;8.822;2022-11-25T15:30:16;7.95;;;3.08;;
20365;SDS011;10341;49.894;8.822;2022-11-25T15:35:40;7.85;;;4.22;;
20365;SDS011;10341;49.894;8.822;2022-11-25T15:41:00;7.25;;;3.55;;
20365;SDS011;10341;49.894;8.822;2022-11-25T15:46:20;9.38;;;3.30;;
20365;SDS011;10341;49.894;8.822;2022-11-25T15:57:33;6.75;;;2.80;;
20365;SDS011;10341;49.894;8.822;2022-11-25T16:02:55;6.88;;;2.80;;
20365;SDS011;10341;49.894;8.822;2022-11-25T16:08:29;7.03;;;3.08;;
20365;SDS011;10341;49.894;8.822;2022-11-25T16:14:02;10.00;;;3.67;;
20365;SDS011;10341;49.894;8.822;2022-11-25T16:19:40;7.40;;;3.20;;
20365;SDS011;10341;49.894;8.822;2022-11-25T16:25:03;6.97;;;3.40;;
20365;SDS011;10341;49.894;8.822;2022-11-25T16:30:28;7.68;;;3.97;;
20365;SDS011;10341;49.894;8.822;2022-11-25T16:35:47;12.90;;;4.60;;
20365;SDS011;10341;49.894;8.822;2022-11-25T16:41:08;9.95;;;3.10;;
20365;SDS011;10341;49.894;8.822;2022-11-25T16:46:36;6.13;;;3.38;;
20365;SDS011;10341;49.894;8.822;2022-11-25T16:51:55;7.00;;;3.33;;
20365;SDS011;10341;49.894;8.822;2022-11-25T16:57:16;10.95;;;5.47;;
20365;SDS011;10341;49.894;8.822;2022-11-25T17:02:37;8.23;;;4.13;;
20365;SDS011;10341;49.894;8.822;2022-11-25T17:07:57;7.13;;;3.60;;
20365;SDS011;10341;49.894;8.822;2022-11-25T17:13:17;10.35;;;3.97;;
20365;SDS011;10341;49.894;8.822;2022-11-25T17:18:41;7.05;;;3.70;;
20365;SDS011;10341;49.894;8.822;2022-11-25T17:24:00;7.13;;;3.33;;
20365;SDS011;10341;49.894;8.822;2022-11-25T17:29:33;9.02;;;3.38;;
20365;SDS011;10341;49.894;8.822;2022-11-25T17:34:58;6.88;;;3.40;;
20365;SDS011;10341;49.894;8.822;2022-11-25T17:40:18;10.38;;;3.40;;
20365;SDS011;10341;49.894;8.822;2022-11-25T17:45:38;11.23;;;2.95;;
20365;SDS011;10341;49.894;8.822;2022-11-25T17:50:57;9.52;;;3.40;;
20365;SDS011;10341;49.894;8.822;2022-11-25T18:01:42;9.35;;;3.25;;
20365;SDS011;10341;49.894;8.822;2022-11-25T18:07:02;7.88;;;2.90;;
20365;SDS011;10341;49.894;8.822;2022-11-25T18:12:25;12.15;;;3.40;;
20365;SDS011;10341;49.894;8.822;2022-11-25T18:17:46;7.38;;;4.07;;
20365;SDS011;10341;49.894;8.822;2022-11-25T18:23:07;9.45;;;5.68;;
20365;SDS011;10341;49.894;8.822;2022-11-25T18:28:28;12.00;;;5.68;;
20365;SDS011;10341;49.894;8.822;2022-11-25T18:33:49;12.32;;;4.95;;
20365;SDS011;10341;49.894;8.822;2022-11-25T18:39:08;11.57;;;5.90;;
20365;SDS011;10341;49.894;8.822;2022-11-25T18:44:28;10.02;;;5.50;;
20365;SDS011;10341;49.894;8.822;2022-11-25T18:49:47;15.93;;;5.85;;
20365;SDS011;10341;49.894;8.822;2022-11-25T18:55:07;8.63;;;4.00;;
20365;SDS011;10341;49.894;8.822;2022-11-25T19:05:46;8.23;;;2.38;;
20365;SDS011;10341;49.894;8.822;2022-11-25T19:11:17;9.35;;;2.72;;
20365;SDS011;10341;49.894;8.822;2022-11-25T19:16:44;9.68;;;2.92;;
20365;SDS011;10341;49.894;8.822;2022-11-25T19:22:10;8.90;;;2.60;;
20365;SDS011;10341;49.894;8.822;2022-11-25T19:27:34;9.43;;;2.53;;
20365;SDS011;10341;49.894;8.822;2022-11-25T19:32:57;5.53;;;2.42;;
20365;SDS011;10341;49.894;8.822;2022-11-25T19:38:19;7.80;;;2.60;;
20365;SDS011;10341;49.894;8.822;2022-11-25T19:43:39;8.13;;;2.88;;
20365;SDS011;10341;49.894;8.822;2022-11-25T19:48:59;7.22;;;2.45;;
20365;SDS011;10341;49.894;8.822;2022-11-25T19:54:20;12.25;;;2.88;;
20365;SDS011;10341;49.894;8.822;2022-11-25T19:59:39;13.27;;;3.85;;
20365;SDS011;10341;49.894;8.822;2022-11-25T20:04:58;6.50;;;2.35;;
20365;SDS011;10341;49.894;8.822;2022-11-25T20:10:19;16.70;;;3.40;;
20365;SDS011;10341;49.894;8.822;2022-11-25T20:15:43;10.65;;;3.38;;
20365;SDS011;10341;49.894;8.822;2022-11-25T20:21:03;11.52;;;3.03;;
20365;SDS011;10341;49.894;8.822;2022-11-25T20:31:48;9.95;;;3.33;;
20365;SDS011;10341;49.894;8.822;2022-11-25T20:37:08;7.05;;;2.40;;
20365;SDS011;10341;49.894;8.822;2022-11-25T20:42:31;10.75;;;2.60;;
20365;SDS011;10341;49.894;8.822;2022-11-25T20:47:51;10.60;;;2.70;;
20365;SDS011;10341;49.894;8.822;2022-11-25T20:53:14;9.02;;;2.58;;
20365;SDS011;10341;49.894;8.822;2022-11-25T20:58:35;10.90;;;2.47;;
20365;SDS011;10341;49.894;8.822;2022-11-25T21:03:55;11.82;;;2.70;;
20365;SDS011;10341;49.894;8.822;2022-11-25T21:09:18;8.52;;;2.55;;
20365;SDS011;10341;49.894;8.822;2022-11-25T21:14:41;10.55;;;3.45;;
20365;SDS011;10341;49.894;8.822;2022-11-25T21:20:00;6.85;;;3.67;;
20365;SDS011;10341;49.894;8.822;2022-11-25T21:25:19;9.60;;;2.42;;
20365;SDS011;10341;49.894;8.822;2022-11-25T21:30:40;9.85;;;2.58;;
20365;SDS011;10341;49.894;8.822;2022-11-25T21:36:00;10.75;;;2.55;;
20365;SDS011;10341;49.894;8.822;2022-11-25T21:41:19;7.45;;;2.50;;
20365;SDS011;10341;49.894;8.822;2022-11-25T21:46:38;10.27;;;3.10;;
20365;SDS011;10341;49.894;8.822;2022-11-25T21:51:57;13.77;;;3.57;;
20365;SDS011;10341;49.894;8.822;2022-11-25T21:57:18;12.60;;;2.85;;
20365;SDS011;10341;49.894;8.822;2022-11-25T22:02:40;9.40;;;3.58;;
20365;SDS011;10341;49.894;8.822;2022-11-25T22:08:01;14.90;;;3.03;;
20365;SDS011;10341;49.894;8.822;2022-11-25T22:13:22;9.57;;;3.00;;
20365;SDS011;10341;49.894;8.822;2022-11-25T22:18:45;11.30;;;3.13;;
20365;SDS011;10341;49.894;8.822;2022-11-25T22:24:11;13.73;;;3.65;;
20365;SDS011;10341;49.894;8.822;2022-11-25T22:29:33;12.93;;;2.92;;
20365;SDS011;10341;49.894;8.822;2022-11-25T22:34:54;7.20;;;2.65;;
20365;SDS011;10341;49.894;8.822;2022-11-25T22:40:13;13.67;;;2.77;;
20365;SDS011;10341;49.894;8.822;2022-11-25T22:45:33;12.50;;;3.15;;
20365;SDS011;10341;49.894;8.822;2022-11-25T22:50:53;11.23;;;3.22;;
20365;SDS011;10341;49.894;8.822;2022-11-25T22:56:15;7.28;;;3.00;;
20365;SDS011;10341;49.894;8.822;2022-11-25T23:01:36;13.20;;;3.25;;
20365;SDS011;10341;49.894;8.822;2022-11-25T23:06:55;9.27;;;2.43;;
20365;SDS011;10341;49.894;8.822;2022-11-25T23:12:15;9.88;;;2.70;;
20365;SDS011;10341;49.894;8.822;2022-11-25T23:17:34;11.48;;;3.08;;
20365;SDS011;10341;49.894;8.822;2022-11-25T23:22:53;8.33;;;3.07;;
20365;SDS011;10341;49.894;8.822;2022-11-25T23:28:13;14.20;;;4.30;;
20365;SDS011;10341;49.894;8.822;2022-11-25T23:33:34;8.27;;;4.05;;
20365;SDS011;10341;49.894;8.822;2022-11-25T23:38:58;8.40;;;3.45;;
20365;SDS011;10341;49.894;8.822;2022-11-25T23:44:24;9.32;;;3.72;;
20365;SDS011;10341;49.894;8.822;2022-11-25T23:49:45;10.98;;;3.92;;
20365;SDS011;10341;49.894;8.822;2022-11-25T23:55:11;15.38;;;4.05;;
